createdAt,value
2023-05-06T00:01:22.513Z,13.75
2023-05-06T00:03:50.925Z,13.75
2023-05-06T00:06:19.069Z,13.73
2023-05-06T00:08:46.966Z,13.74
2023-05-06T00:11:14.842Z,13.73
2023-05-06T00:13:42.661Z,13.70
2023-05-06T00:16:10.776Z,13.70
2023-05-06T00:18:38.597Z,13.68
2023-05-06T00:21:06.593Z,13.65
2023-05-06T00:23:34.677Z,13.66
2023-05-06T00:26:02.508Z,13.57
2023-05-06T00:28:30.349Z,13.50
2023-05-06T00:30:58.193Z,13.44
2023-05-06T00:33:26.580Z,13.37
2023-05-06T00:35:54.499Z,13.35
2023-05-06T00:38:22.585Z,13.32
2023-05-06T00:40:51.017Z,13.27
2023-05-06T00:43:18.885Z,13.19
2023-05-06T00:45:48.109Z,13.17
2023-05-06T00:48:16.766Z,13.18
2023-05-06T00:50:45.448Z,13.10
2023-05-06T00:53:13.315Z,13.06
2023-05-06T00:55:41.290Z,13.04
2023-05-06T00:58:09.985Z,12.99
2023-05-06T01:00:37.930Z,12.97
2023-05-06T01:03:05.948Z,12.96
2023-05-06T01:05:47.670Z,12.93
2023-05-06T01:08:44.120Z,12.93
2023-05-06T01:11:28.005Z,12.90
2023-05-06T01:14:24.340Z,12.88
2023-05-06T01:16:55.376Z,12.86
2023-05-06T01:19:39.060Z,12.80
2023-05-06T01:22:07.508Z,12.74
2023-05-06T01:24:37.781Z,12.69
2023-05-06T01:27:06.353Z,12.71
2023-05-06T01:29:37.216Z,12.69
2023-05-06T01:32:18.246Z,12.66
2023-05-06T01:34:56.666Z,12.62
2023-05-06T01:37:38.925Z,12.59
2023-05-06T01:40:08.710Z,12.56
2023-05-06T01:42:40.181Z,12.55
2023-05-06T01:45:10.088Z,12.54
2023-05-06T01:47:40.590Z,12.53
2023-05-06T01:50:08.945Z,12.56
2023-05-06T01:52:36.865Z,12.55
2023-05-06T01:55:05.475Z,12.53
2023-05-06T01:57:33.337Z,12.53
2023-05-06T02:00:01.374Z,12.52
2023-05-06T02:02:29.462Z,12.54
2023-05-06T02:04:57.374Z,12.52
2023-05-06T02:07:25.355Z,12.50
2023-05-06T02:09:53.116Z,12.51
2023-05-06T02:12:21.306Z,12.51
2023-05-06T02:14:49.308Z,12.50
2023-05-06T02:17:17.149Z,12.46
2023-05-06T02:19:45.054Z,12.43
2023-05-06T02:22:13.027Z,12.39
2023-05-06T02:24:41.003Z,12.36
2023-05-06T02:27:08.857Z,12.38
2023-05-06T02:29:36.735Z,12.31
2023-05-06T02:32:04.766Z,12.30
2023-05-06T02:34:32.521Z,12.28
2023-05-06T02:37:00.382Z,12.26
2023-05-06T02:39:28.145Z,12.22
2023-05-06T02:41:55.998Z,12.16
2023-05-06T02:44:24.080Z,12.11
2023-05-06T02:46:52.405Z,12.10
2023-05-06T02:49:20.483Z,12.07
2023-05-06T02:51:48.530Z,12.06
2023-05-06T02:54:16.412Z,12.08
2023-05-06T02:56:46.229Z,12.07
2023-05-06T02:59:14.223Z,12.07
2023-05-06T03:01:42.134Z,12.02
2023-05-06T03:04:10.246Z,12.00
2023-05-06T03:06:38.296Z,11.98
2023-05-06T03:09:06.231Z,11.98
2023-05-06T03:11:34.338Z,11.97
2023-05-06T03:14:04.374Z,11.95
2023-05-06T03:16:32.389Z,11.93
2023-05-06T03:19:03.661Z,11.92
2023-05-06T03:21:32.702Z,11.93
2023-05-06T03:24:01.001Z,11.90
2023-05-06T03:26:29.295Z,11.84
2023-05-06T03:28:57.664Z,11.80
2023-05-06T03:31:26.270Z,11.76
2023-05-06T03:33:54.724Z,11.72
2023-05-06T03:36:25.305Z,11.70
2023-05-06T03:38:54.610Z,11.68
2023-05-06T03:41:24.357Z,11.67
2023-05-06T03:43:54.163Z,11.69
2023-05-06T03:46:22.519Z,11.71
2023-05-06T03:48:51.005Z,11.74
2023-05-06T03:51:19.253Z,11.75
2023-05-06T03:53:47.493Z,11.74
2023-05-06T03:56:18.193Z,11.75
2023-05-06T03:58:46.826Z,11.76
2023-05-06T04:01:17.278Z,11.77
2023-05-06T04:03:45.946Z,11.78
2023-05-06T04:06:14.123Z,11.83
2023-05-06T04:08:41.993Z,11.85
2023-05-06T04:11:10.405Z,11.85
2023-05-06T04:13:38.749Z,11.88
2023-05-06T04:16:11.126Z,11.92
2023-05-06T04:18:41.652Z,11.96
2023-05-06T04:21:12.378Z,12.02
2023-05-06T04:23:42.725Z,12.10
2023-05-06T04:26:11.392Z,12.18
2023-05-06T04:28:41.236Z,12.23
2023-05-06T04:31:10.979Z,12.30
2023-05-06T04:33:43.621Z,12.36
2023-05-06T04:36:15.850Z,12.38
2023-05-06T04:38:52.733Z,12.44
2023-05-06T04:41:20.682Z,12.50
2023-05-06T04:43:48.566Z,12.57
2023-05-06T04:46:21.037Z,12.64
2023-05-06T04:48:49.098Z,12.71
2023-05-06T04:51:17.398Z,12.76
2023-05-06T04:53:45.342Z,12.83
2023-05-06T04:56:13.123Z,12.90
2023-05-06T04:58:41.264Z,12.98
2023-05-06T05:01:10.655Z,13.05
2023-05-06T05:03:38.650Z,13.08
2023-05-06T05:06:07.375Z,13.13
2023-05-06T05:08:35.371Z,13.16
2023-05-06T05:11:03.514Z,13.22
2023-05-06T05:13:31.806Z,13.31
2023-05-06T05:15:59.895Z,13.38
2023-05-06T05:18:29.892Z,13.47
2023-05-06T05:21:01.510Z,13.52
2023-05-06T05:23:30.058Z,13.58
2023-05-06T05:25:58.032Z,13.61
2023-05-06T05:28:25.944Z,13.69
2023-05-06T05:30:54.518Z,13.75
2023-05-06T05:33:23.012Z,13.83
2023-05-06T05:35:51.267Z,13.93
2023-05-06T05:38:19.451Z,13.99
2023-05-06T05:40:47.742Z,14.06
2023-05-06T05:43:15.788Z,14.15
2023-05-06T05:45:44.321Z,14.21
2023-05-06T05:48:12.495Z,14.29
2023-05-06T05:50:40.554Z,14.34
2023-05-06T05:53:08.460Z,14.38
2023-05-06T05:55:37.212Z,14.43
2023-05-06T05:58:05.766Z,14.50
2023-05-06T06:00:33.783Z,14.54
2023-05-06T06:03:06.303Z,14.61
2023-05-06T06:05:34.538Z,14.69
2023-05-06T06:08:03.968Z,14.78
2023-05-06T06:10:32.466Z,14.88
2023-05-06T06:13:03.065Z,14.98
2023-05-06T06:15:32.436Z,15.09
2023-05-06T06:18:00.844Z,15.22
2023-05-06T06:20:29.635Z,15.29
2023-05-06T06:22:57.719Z,15.38
2023-05-06T06:25:25.701Z,15.54
2023-05-06T06:27:55.576Z,15.63
2023-05-06T06:30:25.070Z,15.70
2023-05-06T06:32:54.274Z,15.76
2023-05-06T06:35:23.507Z,15.85
2023-05-06T06:37:51.917Z,15.94
2023-05-06T06:40:20.144Z,16.04
2023-05-06T06:42:48.783Z,16.11
2023-05-06T06:45:52.172Z,16.19
2023-05-06T06:48:20.375Z,16.29
2023-05-06T06:50:48.156Z,16.36
2023-05-06T06:53:16.218Z,16.42
2023-05-06T06:55:47.496Z,16.49
2023-05-06T06:58:15.261Z,16.58
2023-05-06T07:00:43.842Z,16.65
2023-05-06T07:03:11.690Z,16.71
2023-05-06T07:05:39.606Z,16.77
2023-05-06T07:08:07.631Z,16.84
2023-05-06T07:10:36.572Z,16.90
2023-05-06T07:13:04.591Z,16.95
2023-05-06T07:15:32.463Z,17.02
2023-05-06T07:18:00.375Z,17.09
2023-05-06T07:20:28.320Z,17.15
2023-05-06T07:22:56.187Z,17.21
2023-05-06T07:25:24.666Z,17.30
2023-05-06T07:27:52.809Z,17.38
2023-05-06T07:30:23.049Z,17.45
2023-05-06T07:32:51.255Z,17.52
2023-05-06T07:35:19.281Z,17.62
2023-05-06T07:37:47.559Z,17.73
2023-05-06T07:40:15.351Z,17.87
2023-05-06T07:42:43.465Z,17.96
2023-05-06T07:45:12.229Z,18.03
2023-05-06T07:47:40.352Z,18.14
2023-05-06T07:50:08.931Z,18.27
2023-05-06T07:52:37.071Z,18.36
2023-05-06T07:55:05.537Z,18.44
2023-05-06T07:57:33.496Z,18.52
2023-05-06T08:00:01.644Z,18.61
2023-05-06T08:02:30.252Z,18.73
2023-05-06T08:04:58.321Z,18.84
2023-05-06T08:07:26.310Z,18.95
2023-05-06T08:09:54.192Z,19.05
2023-05-06T08:12:22.231Z,19.15
2023-05-06T08:14:50.086Z,19.24
2023-05-06T08:17:18.431Z,19.31
2023-05-06T08:19:46.694Z,19.38
2023-05-06T08:22:16.287Z,19.51
2023-05-06T08:24:45.569Z,19.61
2023-05-06T08:27:13.461Z,19.67
2023-05-06T08:29:41.322Z,19.68
2023-05-06T08:32:09.261Z,19.74
2023-05-06T08:34:37.232Z,19.81
2023-05-06T08:37:05.364Z,19.84
2023-05-06T08:39:35.716Z,19.84
2023-05-06T08:42:03.724Z,19.90
2023-05-06T08:44:33.565Z,19.94
2023-05-06T08:47:01.535Z,19.99
2023-05-06T08:49:29.577Z,20.01
2023-05-06T08:51:58.120Z,20.06
2023-05-06T08:54:28.997Z,20.12
2023-05-06T08:56:59.416Z,20.14
2023-05-06T08:59:30.965Z,20.17
2023-05-06T09:02:02.624Z,20.27
2023-05-06T09:04:31.429Z,20.27
2023-05-06T09:06:59.340Z,20.27
2023-05-06T09:09:27.992Z,20.27
2023-05-06T09:11:57.627Z,20.32
2023-05-06T09:14:25.856Z,20.31
2023-05-06T09:16:53.898Z,20.35
2023-05-06T09:19:22.950Z,20.38
2023-05-06T09:21:56.763Z,20.40
2023-05-06T09:24:27.064Z,20.49
2023-05-06T09:26:57.041Z,20.52
2023-05-06T09:29:24.924Z,20.56
2023-05-06T09:31:54.228Z,20.59
2023-05-06T09:34:22.723Z,20.58
2023-05-06T09:36:52.491Z,20.54
2023-05-06T09:39:25.733Z,20.48
2023-05-06T09:41:56.650Z,20.47
2023-05-06T09:44:26.069Z,20.52
2023-05-06T09:46:53.959Z,20.58
2023-05-06T09:49:22.111Z,20.61
2023-05-06T09:51:51.642Z,20.66
2023-05-06T09:54:19.742Z,20.76
2023-05-06T09:56:47.952Z,20.88
2023-05-06T09:59:18.506Z,20.87
2023-05-06T10:01:47.088Z,20.82
2023-05-06T10:04:17.368Z,20.92
2023-05-06T10:06:52.215Z,21.05
2023-05-06T10:09:25.062Z,21.16
2023-05-06T10:11:54.416Z,21.15
2023-05-06T10:14:22.376Z,21.14
2023-05-06T10:16:50.942Z,21.17
2023-05-06T10:19:23.424Z,21.23
2023-05-06T10:22:11.527Z,21.28
2023-05-06T10:24:54.195Z,21.35
2023-05-06T10:27:28.327Z,21.38
2023-05-06T10:30:00.022Z,21.46
2023-05-06T10:32:32.091Z,21.51
2023-05-06T10:35:10.360Z,21.54
2023-05-06T10:37:40.670Z,21.62
2023-05-06T10:40:10.022Z,21.77
2023-05-06T10:42:38.017Z,21.88
2023-05-06T10:45:06.649Z,21.99
2023-05-06T10:47:56.902Z,22.10
2023-05-06T10:50:26.824Z,22.13
2023-05-06T10:52:56.769Z,22.18
2023-05-06T10:55:36.028Z,22.21
2023-05-06T10:58:14.670Z,22.30
2023-05-06T11:00:53.832Z,22.46
2023-05-06T11:03:23.991Z,22.58
2023-05-06T11:05:52.725Z,22.67
2023-05-06T11:08:27.210Z,22.67
2023-05-06T11:10:55.670Z,22.73
2023-05-06T11:13:29.063Z,22.84
2023-05-06T11:16:02.507Z,23.02
2023-05-06T11:18:36.926Z,23.07
2023-05-06T11:21:08.310Z,23.08
2023-05-06T11:23:42.078Z,23.15
2023-05-06T11:26:11.105Z,23.22
2023-05-06T11:28:40.132Z,23.29
2023-05-06T11:31:12.161Z,23.26
2023-05-06T11:33:52.404Z,23.20
2023-05-06T11:36:21.154Z,23.19
2023-05-06T11:38:53.036Z,23.06
2023-05-06T11:41:22.976Z,22.86
2023-05-06T11:43:53.468Z,22.84
2023-05-06T11:46:23.189Z,22.94
2023-05-06T11:48:54.148Z,23.05
2023-05-06T11:51:23.164Z,23.22
2023-05-06T11:53:52.105Z,23.33
2023-05-06T11:56:20.106Z,23.30
2023-05-06T11:58:48.129Z,23.32
2023-05-06T12:01:15.989Z,23.43
2023-05-06T12:03:44.004Z,23.50
2023-05-06T12:06:13.183Z,23.56
2023-05-06T12:08:41.508Z,23.57
2023-05-06T12:11:11.175Z,23.57
2023-05-06T12:13:40.726Z,23.61
2023-05-06T12:16:11.947Z,23.64
2023-05-06T12:18:40.560Z,23.62
2023-05-06T12:21:08.504Z,23.48
2023-05-06T12:23:36.314Z,23.46
2023-05-06T12:26:06.526Z,23.52
2023-05-06T12:28:36.269Z,23.54
2023-05-06T12:31:24.192Z,23.57
2023-05-06T12:33:52.716Z,23.66
2023-05-06T12:36:21.600Z,23.73
2023-05-06T12:38:54.276Z,23.84
2023-05-06T12:41:23.290Z,23.92
2023-05-06T12:43:55.387Z,23.91
2023-05-06T12:46:23.354Z,23.89
2023-05-06T12:48:58.163Z,23.86
2023-05-06T12:51:27.080Z,23.81
2023-05-06T12:53:55.017Z,23.75
2023-05-06T12:56:23.394Z,23.67
2023-05-06T12:58:58.281Z,23.63
2023-05-06T13:01:26.301Z,23.67
2023-05-06T13:03:58.467Z,23.66
2023-05-06T13:06:26.395Z,23.68
2023-05-06T13:08:54.219Z,23.76
2023-05-06T13:11:22.276Z,23.78
2023-05-06T13:13:50.208Z,23.77
2023-05-06T13:16:18.306Z,23.80
2023-05-06T13:18:46.288Z,23.82
2023-05-06T13:21:14.246Z,23.79
2023-05-06T13:23:46.995Z,23.84
2023-05-06T13:26:15.643Z,23.92
2023-05-06T13:28:43.598Z,23.98
2023-05-06T13:31:11.598Z,23.97
2023-05-06T13:33:39.605Z,23.95
2023-05-06T13:36:07.713Z,24.01
2023-05-06T13:38:35.752Z,24.10
2023-05-06T13:41:03.564Z,24.18
2023-05-06T13:43:31.350Z,24.24
2023-05-06T13:45:59.135Z,24.29
2023-05-06T13:48:26.916Z,24.23
2023-05-06T13:50:54.847Z,24.16
2023-05-06T13:53:22.831Z,24.12
2023-05-06T13:55:50.663Z,24.13
2023-05-06T13:58:18.677Z,24.12
2023-05-06T14:00:48.553Z,24.07
2023-05-06T14:03:16.453Z,24.07
2023-05-06T14:05:44.535Z,24.10
2023-05-06T14:08:12.356Z,24.12
2023-05-06T14:10:40.210Z,24.24
2023-05-06T14:13:08.193Z,24.28
2023-05-06T14:15:36.098Z,24.33
2023-05-06T14:18:04.527Z,24.32
2023-05-06T14:20:32.404Z,24.35
2023-05-06T14:23:00.368Z,24.40
2023-05-06T14:25:28.255Z,24.46
2023-05-06T14:27:56.278Z,24.46
2023-05-06T14:30:24.483Z,24.50
2023-05-06T14:32:52.710Z,24.50
2023-05-06T14:35:20.882Z,24.50
2023-05-06T14:37:48.961Z,24.47
2023-05-06T14:40:17.276Z,24.37
2023-05-06T14:42:45.877Z,24.33
2023-05-06T14:45:15.693Z,24.28
2023-05-06T14:47:43.823Z,24.29
2023-05-06T14:50:13.019Z,24.25
2023-05-06T14:52:41.868Z,24.25
2023-05-06T14:55:11.185Z,24.26
2023-05-06T14:57:39.495Z,24.30
2023-05-06T15:00:14.666Z,24.34
2023-05-06T15:02:42.886Z,24.35
2023-05-06T15:05:12.095Z,24.33
2023-05-06T15:07:40.497Z,24.34
2023-05-06T15:10:08.810Z,24.27
2023-05-06T15:12:39.486Z,24.14
2023-05-06T15:15:08.268Z,24.17
2023-05-06T15:17:36.370Z,24.21
2023-05-06T15:20:04.666Z,24.26
2023-05-06T15:22:32.644Z,24.29
2023-05-06T15:25:01.644Z,24.33
2023-05-06T15:27:29.408Z,24.33
2023-05-06T15:29:57.234Z,24.26
2023-05-06T15:32:25.041Z,24.15
2023-05-06T15:34:53.086Z,24.11
2023-05-06T15:37:22.128Z,24.13
2023-05-06T15:39:49.946Z,24.24
2023-05-06T15:42:17.906Z,24.35
2023-05-06T15:44:49.266Z,24.39
2023-05-06T15:47:17.945Z,24.50
2023-05-06T15:49:52.868Z,24.54
2023-05-06T15:52:23.200Z,24.67
2023-05-06T15:54:51.549Z,24.71
2023-05-06T15:57:19.617Z,24.83
2023-05-06T15:59:47.474Z,24.85
2023-05-06T16:02:26.702Z,24.74
2023-05-06T16:04:55.088Z,24.66
2023-05-06T16:07:23.285Z,24.55
2023-05-06T16:09:51.271Z,24.42
2023-05-06T16:12:19.216Z,24.24
2023-05-06T16:14:47.122Z,24.14
2023-05-06T16:17:15.848Z,24.05
2023-05-06T16:19:43.730Z,23.94
2023-05-06T16:22:11.546Z,23.91
2023-05-06T16:24:39.320Z,23.82
2023-05-06T16:27:07.263Z,23.71
2023-05-06T16:29:35.156Z,23.63
2023-05-06T16:32:03.454Z,23.57
2023-05-06T16:34:31.289Z,23.52
2023-05-06T16:37:00.467Z,23.47
2023-05-06T16:39:28.603Z,23.41
2023-05-06T16:41:56.436Z,23.33
2023-05-06T16:44:24.322Z,23.28
2023-05-06T16:46:52.171Z,23.20
2023-05-06T16:49:21.156Z,23.12
2023-05-06T16:51:48.957Z,23.02
2023-05-06T16:54:16.917Z,23.00
2023-05-06T16:56:52.228Z,22.95
2023-05-06T16:59:22.167Z,22.88
2023-05-06T17:01:50.731Z,22.83
2023-05-06T17:04:18.668Z,22.76
2023-05-06T17:06:46.496Z,22.75
2023-05-06T17:09:14.491Z,22.71
2023-05-06T17:11:42.658Z,22.65
2023-05-06T17:14:11.234Z,22.61
2023-05-06T17:16:39.353Z,22.59
2023-05-06T17:19:07.354Z,22.55
2023-05-06T17:21:35.318Z,22.48
2023-05-06T17:24:03.572Z,22.40
2023-05-06T17:26:32.660Z,22.32
2023-05-06T17:29:01.169Z,22.23
2023-05-06T17:31:29.130Z,22.15
2023-05-06T17:33:57.598Z,22.10
2023-05-06T17:36:26.033Z,22.04
2023-05-06T17:39:05.087Z,21.93
2023-05-06T17:41:33.655Z,21.84
2023-05-06T17:44:01.639Z,21.75
2023-05-06T17:46:29.773Z,21.67
2023-05-06T17:48:57.803Z,21.60
2023-05-06T17:51:26.787Z,21.52
2023-05-06T17:53:54.692Z,21.45
2023-05-06T17:56:22.652Z,21.38
2023-05-06T17:58:50.634Z,21.31
2023-05-06T18:01:18.710Z,21.24
2023-05-06T18:03:46.842Z,21.16
2023-05-06T18:06:14.837Z,21.09
2023-05-06T18:08:44.380Z,21.02
2023-05-06T18:11:12.335Z,20.94
2023-05-06T18:13:40.394Z,20.87
2023-05-06T18:16:08.521Z,20.79
2023-05-06T18:18:36.412Z,20.73
2023-05-06T18:21:04.243Z,20.68
2023-05-06T18:23:32.518Z,20.64
2023-05-06T18:26:03.374Z,20.58
2023-05-06T18:28:31.775Z,20.50
2023-05-06T18:30:59.860Z,20.44
2023-05-06T18:33:28.066Z,20.37
2023-05-06T18:35:56.804Z,20.30
2023-05-06T18:38:26.442Z,20.23
2023-05-06T18:40:54.443Z,20.16
2023-05-06T18:43:22.397Z,20.10
2023-05-06T18:45:52.168Z,20.04
2023-05-06T18:48:20.258Z,20.01
2023-05-06T18:50:49.277Z,19.97
2023-05-06T18:53:17.162Z,19.92
2023-05-06T18:55:45.181Z,19.86
2023-05-06T18:58:12.926Z,19.81
2023-05-06T19:00:40.999Z,19.77
2023-05-06T19:03:09.396Z,19.73
2023-05-06T19:05:38.052Z,19.68
2023-05-06T19:08:07.406Z,19.63
2023-05-06T19:10:35.375Z,19.59
2023-05-06T19:13:04.961Z,19.53
2023-05-06T19:15:33.097Z,19.46
2023-05-06T19:18:01.983Z,19.38
2023-05-06T19:20:30.073Z,19.32
2023-05-06T19:22:57.952Z,19.27
2023-05-06T19:25:27.105Z,19.24
2023-05-06T19:27:55.098Z,19.20
2023-05-06T19:30:22.992Z,19.18
2023-05-06T19:32:51.028Z,19.14
2023-05-06T19:35:19.230Z,19.09
2023-05-06T19:37:47.206Z,19.05
2023-05-06T19:40:15.130Z,19.00
2023-05-06T19:42:43.078Z,18.95
2023-05-06T19:45:15.899Z,18.94
2023-05-06T19:47:44.648Z,18.89
2023-05-06T19:50:13.077Z,18.87
2023-05-06T19:52:41.325Z,18.85
2023-05-06T19:55:09.948Z,18.82
2023-05-06T19:57:38.367Z,18.78
2023-05-06T20:00:10.252Z,18.77
2023-05-06T20:02:38.847Z,18.72
2023-05-06T20:05:15.579Z,18.68
2023-05-06T20:07:47.066Z,18.65
2023-05-06T20:10:15.050Z,18.60
2023-05-06T20:12:43.483Z,18.57
2023-05-06T20:15:11.863Z,18.52
2023-05-06T20:17:40.094Z,18.49
2023-05-06T20:20:13.728Z,18.47
2023-05-06T20:22:44.055Z,18.41
2023-05-06T20:25:18.832Z,18.39
2023-05-06T20:27:48.849Z,18.38
2023-05-06T20:30:19.768Z,18.38
2023-05-06T20:32:49.110Z,18.40
2023-05-06T20:35:19.251Z,18.38
2023-05-06T20:37:47.660Z,18.41
2023-05-06T20:40:15.836Z,18.39
2023-05-06T20:42:43.858Z,18.25
2023-05-06T20:45:12.394Z,18.13
2023-05-06T20:47:41.410Z,18.14
2023-05-06T20:50:16.522Z,18.15
2023-05-06T20:52:46.064Z,18.18
2023-05-06T20:55:16.549Z,18.19
2023-05-06T20:57:44.909Z,18.18
2023-05-06T21:00:13.347Z,18.19
2023-05-06T21:02:42.281Z,18.20
2023-05-06T21:05:11.321Z,18.21
2023-05-06T21:07:39.627Z,18.19
2023-05-06T21:10:09.904Z,18.18
2023-05-06T21:12:38.163Z,18.15
2023-05-06T21:15:06.751Z,18.11
2023-05-06T21:17:35.038Z,18.13
2023-05-06T21:20:04.278Z,18.09
2023-05-06T21:22:34.308Z,18.03
2023-05-06T21:25:02.266Z,18.00
2023-05-06T21:27:30.363Z,18.00
2023-05-06T21:29:58.399Z,17.98
2023-05-06T21:32:29.675Z,17.99
2023-05-06T21:34:57.584Z,17.98
2023-05-06T21:37:25.637Z,17.92
2023-05-06T21:39:54.072Z,17.89
2023-05-06T21:42:22.010Z,17.85
2023-05-06T21:44:50.062Z,17.79
2023-05-06T21:47:18.102Z,17.77
2023-05-06T21:49:46.206Z,17.72
2023-05-06T21:52:14.090Z,17.67
2023-05-06T21:54:42.154Z,17.60
2023-05-06T21:57:10.097Z,17.57
2023-05-06T21:59:38.386Z,17.48
2023-05-06T22:02:06.579Z,17.42
2023-05-06T22:04:34.650Z,17.39
2023-05-06T22:07:02.652Z,17.35
2023-05-06T22:09:32.698Z,17.35
2023-05-06T22:12:06.736Z,17.37
2023-05-06T22:14:41.066Z,17.39
2023-05-06T22:17:10.566Z,17.41
2023-05-06T22:19:40.849Z,17.44
2023-05-06T22:22:12.038Z,17.46
2023-05-06T22:24:41.173Z,17.46
2023-05-06T22:27:09.106Z,17.48
2023-05-06T22:29:37.080Z,17.51
2023-05-06T22:32:06.369Z,17.53
2023-05-06T22:34:34.637Z,17.54
2023-05-06T22:37:09.832Z,17.56
2023-05-06T22:39:37.886Z,17.58
2023-05-06T22:42:06.046Z,17.62
2023-05-06T22:44:34.229Z,17.62
2023-05-06T22:47:02.318Z,17.58
2023-05-06T22:49:30.327Z,17.55
2023-05-06T22:51:58.339Z,17.52
2023-05-06T22:54:26.342Z,17.50
2023-05-06T22:56:54.402Z,17.43
2023-05-06T22:59:22.482Z,17.39
2023-05-06T23:01:50.514Z,17.35
2023-05-06T23:04:18.702Z,17.34
2023-05-06T23:06:46.794Z,17.32
2023-05-06T23:09:14.772Z,17.28
2023-05-06T23:11:42.720Z,17.26
2023-05-06T23:14:11.078Z,17.28
2023-05-06T23:16:39.052Z,17.28
2023-05-06T23:19:07.206Z,17.26
2023-05-06T23:21:35.327Z,17.24
2023-05-06T23:24:03.473Z,17.21
2023-05-06T23:26:31.398Z,17.21
2023-05-06T23:28:59.459Z,17.23
2023-05-06T23:31:27.622Z,17.20
2023-05-06T23:33:55.819Z,17.19
2023-05-06T23:36:23.764Z,17.21
2023-05-06T23:38:51.750Z,17.20
2023-05-06T23:41:19.770Z,17.21
2023-05-06T23:43:47.750Z,17.19
2023-05-06T23:46:15.909Z,17.19
2023-05-06T23:48:43.891Z,17.20
2023-05-06T23:51:11.787Z,17.16
2023-05-06T23:53:40.279Z,17.12
2023-05-06T23:56:08.111Z,17.08
2023-05-06T23:58:36.247Z,17.04
